createdAt,value
2022-10-09T00:02:00.994Z,6.49
2022-10-09T00:04:46.123Z,6.40
2022-10-09T00:07:31.400Z,6.43
2022-10-09T00:10:16.778Z,6.38
2022-10-09T00:13:01.762Z,6.31
2022-10-09T00:15:47.471Z,6.35
2022-10-09T00:18:33.357Z,6.27
2022-10-09T00:21:28.358Z,6.19
2022-10-09T00:24:13.598Z,6.17
2022-10-09T00:26:58.665Z,6.21
2022-10-09T00:29:43.822Z,6.16
2022-10-09T00:32:28.786Z,6.30
2022-10-09T00:35:14.252Z,6.26
2022-10-09T00:37:59.190Z,6.10
2022-10-09T00:40:44.099Z,6.11
2022-10-09T00:43:44.941Z,6.05
2022-10-09T00:46:35.196Z,6.10
2022-10-09T00:49:23.012Z,5.97
2022-10-09T00:52:08.004Z,5.90
2022-10-09T00:54:53.954Z,5.81
2022-10-09T00:57:40.353Z,5.68
2022-10-09T01:00:26.815Z,5.73
2022-10-09T01:03:12.032Z,5.85
2022-10-09T01:06:22.259Z,5.82
2022-10-09T01:09:25.370Z,5.80
2022-10-09T01:12:28.053Z,5.66
2022-10-09T01:15:36.497Z,5.67
2022-10-09T01:18:36.845Z,5.63
2022-10-09T01:21:30.091Z,5.63
2022-10-09T01:24:38.091Z,5.62
2022-10-09T01:27:28.684Z,5.57
2022-10-09T01:30:14.049Z,5.55
2022-10-09T01:32:59.502Z,5.43
2022-10-09T01:35:47.049Z,5.47
2022-10-09T01:38:34.065Z,5.45
2022-10-09T01:41:20.398Z,5.41
2022-10-09T01:44:16.513Z,5.41
2022-10-09T01:47:01.915Z,5.38
2022-10-09T01:49:54.241Z,5.31
2022-10-09T01:52:55.790Z,5.30
2022-10-09T01:55:47.069Z,5.38
2022-10-09T01:58:37.190Z,5.44
2022-10-09T02:01:28.356Z,5.47
2022-10-09T02:04:16.725Z,5.39
2022-10-09T02:07:02.754Z,5.33
2022-10-09T02:09:48.056Z,5.35
2022-10-09T02:12:38.105Z,5.39
2022-10-09T02:15:30.982Z,5.43
2022-10-09T02:18:22.969Z,5.40
2022-10-09T02:21:23.707Z,5.37
2022-10-09T02:24:14.573Z,5.36
2022-10-09T02:27:00.628Z,5.33
2022-10-09T02:29:46.692Z,5.28
2022-10-09T02:32:31.583Z,5.19
2022-10-09T02:35:16.945Z,5.14
2022-10-09T02:38:02.130Z,5.17
2022-10-09T02:40:47.231Z,5.16
2022-10-09T02:43:32.390Z,5.01
2022-10-09T02:46:18.298Z,5.15
2022-10-09T02:49:03.445Z,5.13
2022-10-09T02:51:48.751Z,5.07
2022-10-09T02:54:33.624Z,4.96
2022-10-09T02:57:18.586Z,4.95
2022-10-09T03:00:04.722Z,4.91
2022-10-09T03:02:50.207Z,4.83
2022-10-09T03:05:35.470Z,4.74
2022-10-09T03:08:20.415Z,4.76
2022-10-09T03:11:05.570Z,4.82
2022-10-09T03:13:51.395Z,4.79
2022-10-09T03:16:36.525Z,4.79
2022-10-09T03:19:21.789Z,4.75
2022-10-09T03:22:06.815Z,4.72
2022-10-09T03:24:51.964Z,4.68
2022-10-09T03:27:37.006Z,4.67
2022-10-09T03:30:22.025Z,4.66
2022-10-09T03:33:07.232Z,4.71
2022-10-09T03:35:52.297Z,4.73
2022-10-09T03:38:37.343Z,4.72
2022-10-09T03:41:22.472Z,4.68
2022-10-09T03:44:07.571Z,4.70
2022-10-09T03:46:52.707Z,4.71
2022-10-09T03:49:37.821Z,4.61
2022-10-09T03:52:22.837Z,4.75
2022-10-09T03:55:08.568Z,4.72
2022-10-09T03:57:53.682Z,4.75
2022-10-09T04:00:38.656Z,4.76
2022-10-09T04:03:24.074Z,4.65
2022-10-09T04:06:09.250Z,4.71
2022-10-09T04:08:54.295Z,4.77
2022-10-09T04:11:39.589Z,4.72
2022-10-09T04:14:24.621Z,4.71
2022-10-09T04:17:09.787Z,4.69
2022-10-09T04:19:54.963Z,4.70
2022-10-09T04:22:40.069Z,4.55
2022-10-09T04:25:24.883Z,4.66
2022-10-09T04:28:09.963Z,4.64
2022-10-09T04:30:57.276Z,4.68
2022-10-09T04:33:42.215Z,4.62
2022-10-09T04:36:27.561Z,4.56
2022-10-09T04:39:12.810Z,4.58
2022-10-09T04:41:58.032Z,4.46
2022-10-09T04:44:43.469Z,4.42
2022-10-09T04:47:28.473Z,4.54
2022-10-09T04:50:14.909Z,4.44
2022-10-09T04:52:59.802Z,4.49
2022-10-09T04:55:44.927Z,4.48
2022-10-09T04:58:31.321Z,4.52
2022-10-09T05:01:22.509Z,4.53
2022-10-09T05:04:08.843Z,4.54
2022-10-09T05:06:53.770Z,4.52
2022-10-09T05:09:38.594Z,4.50
2022-10-09T05:12:23.726Z,4.46
2022-10-09T05:15:09.184Z,4.49
2022-10-09T05:17:54.146Z,4.40
2022-10-09T05:20:42.608Z,4.46
2022-10-09T05:23:27.846Z,4.43
2022-10-09T05:26:19.016Z,4.35
2022-10-09T05:29:04.119Z,4.19
2022-10-09T05:31:49.793Z,4.26
2022-10-09T05:34:35.046Z,4.17
2022-10-09T05:37:20.394Z,4.25
2022-10-09T05:40:06.013Z,4.31
2022-10-09T05:42:51.360Z,4.24
2022-10-09T05:45:36.618Z,4.24
2022-10-09T05:48:22.386Z,4.25
2022-10-09T05:51:12.881Z,4.27
2022-10-09T05:53:59.291Z,4.21
2022-10-09T05:56:45.205Z,4.13
2022-10-09T05:59:30.250Z,4.16
2022-10-09T06:02:15.168Z,4.00
2022-10-09T06:05:00.146Z,4.14
2022-10-09T06:07:46.590Z,4.12
2022-10-09T06:10:32.623Z,4.09
2022-10-09T06:13:17.705Z,3.93
2022-10-09T06:16:03.164Z,4.11
2022-10-09T06:18:49.511Z,4.04
2022-10-09T06:21:35.101Z,4.10
2022-10-09T06:24:27.245Z,4.07
2022-10-09T06:27:14.151Z,4.09
2022-10-09T06:29:58.926Z,4.10
2022-10-09T06:32:43.882Z,4.05
2022-10-09T06:35:28.879Z,4.07
2022-10-09T06:38:15.376Z,4.11
2022-10-09T06:41:06.164Z,4.11
2022-10-09T06:44:04.339Z,3.98
2022-10-09T06:46:49.934Z,4.12
2022-10-09T06:49:35.110Z,4.14
2022-10-09T06:52:20.039Z,4.22
2022-10-09T06:55:05.463Z,4.11
2022-10-09T06:57:50.446Z,4.25
2022-10-09T07:00:35.401Z,4.23
2022-10-09T07:03:20.646Z,4.05
2022-10-09T07:06:15.054Z,4.29
2022-10-09T07:09:02.405Z,4.32
2022-10-09T07:11:49.318Z,4.36
2022-10-09T07:14:34.755Z,4.36
2022-10-09T07:17:20.162Z,4.54
2022-10-09T07:20:05.321Z,4.62
2022-10-09T07:22:50.902Z,4.74
2022-10-09T07:25:39.524Z,4.72
2022-10-09T07:28:26.347Z,4.91
2022-10-09T07:31:12.248Z,4.88
2022-10-09T07:33:57.703Z,5.09
2022-10-09T07:36:42.697Z,5.19
2022-10-09T07:39:27.897Z,5.33
2022-10-09T07:42:13.078Z,5.41
2022-10-09T07:44:58.331Z,5.43
2022-10-09T07:47:43.219Z,5.63
2022-10-09T07:50:28.347Z,5.73
2022-10-09T07:53:13.231Z,5.83
2022-10-09T07:55:58.108Z,5.99
2022-10-09T07:58:48.268Z,6.12
2022-10-09T08:01:35.267Z,6.21
2022-10-09T08:04:20.316Z,6.29
2022-10-09T08:07:05.589Z,6.47
2022-10-09T08:09:50.445Z,6.46
2022-10-09T08:12:35.360Z,6.72
2022-10-09T08:15:20.346Z,6.81
2022-10-09T08:18:05.298Z,6.94
2022-10-09T08:21:09.077Z,6.98
2022-10-09T08:23:57.318Z,7.07
2022-10-09T08:26:44.115Z,7.17
2022-10-09T08:29:29.654Z,7.28
2022-10-09T08:32:14.836Z,7.33
2022-10-09T08:35:00.131Z,7.22
2022-10-09T08:37:45.306Z,7.50
2022-10-09T08:40:58.229Z,7.61
2022-10-09T08:43:47.702Z,7.70
2022-10-09T08:46:56.219Z,7.80
2022-10-09T08:50:08.947Z,7.81
2022-10-09T08:53:06.967Z,8.05
2022-10-09T08:56:01.148Z,8.17
2022-10-09T08:58:46.346Z,8.27
2022-10-09T09:01:38.832Z,8.38
2022-10-09T09:04:52.399Z,8.52
2022-10-09T09:08:14.747Z,8.71
2022-10-09T09:11:21.485Z,8.69
2022-10-09T09:14:07.167Z,8.94
2022-10-09T09:17:07.493Z,9.10
2022-10-09T09:20:01.264Z,9.27
2022-10-09T09:22:49.158Z,9.31
2022-10-09T09:25:39.510Z,9.45
2022-10-09T09:28:33.247Z,9.77
2022-10-09T09:31:25.980Z,9.98
2022-10-09T09:34:19.709Z,10.16
2022-10-09T09:37:04.642Z,10.46
2022-10-09T09:42:56.990Z,10.97
2022-10-09T09:45:43.771Z,11.19
2022-10-09T09:48:41.222Z,11.47
2022-10-09T09:51:30.381Z,11.84
2022-10-09T09:54:20.479Z,12.13
2022-10-09T09:57:17.037Z,12.42
2022-10-09T10:00:23.653Z,12.70
2022-10-09T10:03:16.672Z,12.91
2022-10-09T10:06:02.339Z,13.16
2022-10-09T10:09:02.042Z,13.22
2022-10-09T10:11:58.022Z,13.51
2022-10-09T10:14:50.155Z,13.67
2022-10-09T10:17:36.668Z,13.89
2022-10-09T10:20:21.955Z,14.05
2022-10-09T10:23:24.909Z,14.11
2022-10-09T10:26:28.520Z,14.16
2022-10-09T10:29:25.141Z,13.98
2022-10-09T10:32:15.887Z,13.91
2022-10-09T10:35:01.153Z,13.99
2022-10-09T10:38:18.202Z,14.19
2022-10-09T10:41:22.206Z,14.29
2022-10-09T10:44:15.467Z,14.37
2022-10-09T10:47:06.572Z,14.47
2022-10-09T10:49:51.834Z,14.61
2022-10-09T10:52:59.370Z,14.62
2022-10-09T10:56:05.103Z,14.66
2022-10-09T10:59:41.685Z,14.83
2022-10-09T11:02:49.221Z,14.76
2022-10-09T11:05:57.755Z,15.04
2022-10-09T11:09:02.801Z,15.26
2022-10-09T11:12:19.328Z,15.42
2022-10-09T11:15:27.961Z,15.35
2022-10-09T11:18:35.519Z,15.64
2022-10-09T11:21:45.318Z,15.78
2022-10-09T11:24:32.889Z,15.87
2022-10-09T11:27:23.987Z,16.01
2022-10-09T11:30:11.361Z,16.12
2022-10-09T11:33:10.932Z,16.22
2022-10-09T11:36:02.050Z,16.40
2022-10-09T11:39:19.979Z,16.58
2022-10-09T11:42:06.421Z,16.73
2022-10-09T11:45:06.384Z,16.88
2022-10-09T11:48:03.207Z,17.04
2022-10-09T11:51:00.540Z,17.02
2022-10-09T11:53:46.463Z,17.16
2022-10-09T11:56:32.289Z,17.36
2022-10-09T11:59:23.449Z,17.38
2022-10-09T12:02:27.324Z,17.59
2022-10-09T12:05:38.631Z,17.65
2022-10-09T12:08:27.390Z,17.80
2022-10-09T12:11:15.490Z,17.85
2022-10-09T12:14:07.666Z,17.99
2022-10-09T12:16:53.698Z,18.06
2022-10-09T12:19:41.951Z,18.09
2022-10-09T12:22:41.513Z,18.16
2022-10-09T12:25:42.911Z,18.03
2022-10-09T12:28:38.354Z,18.18
2022-10-09T12:31:31.623Z,18.29
2022-10-09T12:34:37.757Z,18.36
2022-10-09T12:37:33.450Z,18.52
2022-10-09T12:40:44.634Z,18.64
2022-10-09T12:43:32.249Z,18.62
2022-10-09T12:46:26.401Z,18.63
2022-10-09T12:49:21.654Z,18.65
2022-10-09T12:52:14.900Z,18.73
2022-10-09T12:55:01.953Z,18.87
2022-10-09T12:57:47.379Z,19.00
2022-10-09T13:00:33.961Z,19.06
2022-10-09T13:03:26.059Z,19.09
2022-10-09T13:06:17.514Z,19.24
2022-10-09T13:09:06.451Z,19.11
2022-10-09T13:11:56.344Z,19.07
2022-10-09T13:15:06.278Z,19.09
2022-10-09T13:17:51.788Z,19.20
2022-10-09T13:20:37.298Z,19.13
2022-10-09T13:23:34.850Z,19.00
2022-10-09T13:26:24.873Z,18.83
2022-10-09T13:29:13.471Z,19.11
2022-10-09T13:31:58.692Z,19.04
2022-10-09T13:34:44.740Z,19.10
2022-10-09T13:37:30.138Z,19.17
2022-10-09T13:40:19.736Z,19.29
2022-10-09T13:43:05.744Z,19.53
2022-10-09T13:45:50.864Z,19.34
2022-10-09T13:48:37.633Z,19.27
2022-10-09T13:51:22.722Z,19.24
2022-10-09T13:54:08.033Z,19.21
2022-10-09T13:56:53.436Z,19.02
2022-10-09T13:59:38.927Z,18.88
2022-10-09T14:02:24.097Z,18.93
2022-10-09T14:05:09.297Z,19.18
2022-10-09T14:07:54.676Z,19.41
2022-10-09T14:10:43.464Z,19.43
2022-10-09T14:13:29.009Z,19.27
2022-10-09T14:16:14.473Z,19.04
2022-10-09T14:19:02.319Z,18.66
2022-10-09T14:21:47.553Z,18.62
2022-10-09T14:24:32.786Z,18.60
2022-10-09T14:27:18.091Z,18.87
2022-10-09T14:30:03.481Z,19.08
2022-10-09T14:32:49.121Z,19.09
2022-10-09T14:35:34.093Z,19.11
2022-10-09T14:38:19.025Z,19.25
2022-10-09T14:41:04.321Z,19.35
2022-10-09T14:43:56.649Z,19.43
2022-10-09T14:46:41.575Z,19.20
2022-10-09T14:49:26.898Z,18.83
2022-10-09T14:52:12.401Z,18.85
2022-10-09T14:54:57.309Z,18.70
2022-10-09T14:57:43.623Z,18.40
2022-10-09T15:00:28.595Z,18.14
2022-10-09T15:03:13.586Z,17.93
2022-10-09T15:05:59.939Z,17.72
2022-10-09T15:08:45.311Z,17.26
2022-10-09T15:11:30.621Z,17.29
2022-10-09T15:14:15.491Z,17.10
2022-10-09T15:17:00.838Z,17.03
2022-10-09T15:19:46.061Z,16.93
2022-10-09T15:22:31.157Z,16.70
2022-10-09T15:25:16.762Z,16.49
2022-10-09T15:28:02.085Z,16.38
2022-10-09T15:30:57.709Z,16.22
2022-10-09T15:33:42.887Z,16.12
2022-10-09T15:36:29.240Z,16.08
2022-10-09T15:39:14.936Z,16.09
2022-10-09T15:41:59.972Z,16.04
2022-10-09T15:44:44.818Z,16.01
2022-10-09T15:47:49.996Z,16.01
2022-10-09T15:50:36.951Z,15.87
2022-10-09T15:53:23.721Z,15.85
2022-10-09T15:56:12.430Z,15.85
2022-10-09T15:58:58.579Z,15.82
2022-10-09T16:01:44.281Z,15.74
2022-10-09T16:04:29.420Z,15.82
2022-10-09T16:07:14.646Z,15.74
2022-10-09T16:09:59.614Z,15.71
2022-10-09T16:12:44.471Z,15.57
2022-10-09T16:15:29.436Z,15.53
2022-10-09T16:18:20.664Z,15.41
2022-10-09T16:21:08.418Z,15.32
2022-10-09T16:23:58.474Z,15.11
2022-10-09T16:26:44.175Z,15.13
2022-10-09T16:29:30.402Z,15.00
2022-10-09T16:32:16.214Z,14.95
2022-10-09T16:35:01.380Z,14.79
2022-10-09T16:37:46.742Z,14.76
2022-10-09T16:40:57.500Z,14.66
2022-10-09T16:43:38.760Z,14.56
2022-10-09T16:46:25.592Z,14.51
2022-10-09T16:49:20.003Z,14.23
2022-10-09T16:52:08.239Z,14.36
2022-10-09T16:54:57.078Z,14.27
2022-10-09T16:57:45.154Z,14.20
2022-10-09T17:00:30.313Z,14.13
2022-10-09T17:03:15.495Z,14.08
2022-10-09T17:06:00.602Z,14.07
2022-10-09T17:08:46.475Z,13.96
2022-10-09T17:11:32.332Z,13.90
2022-10-09T17:14:17.552Z,13.88
2022-10-09T17:17:04.599Z,13.81
2022-10-09T17:22:39.767Z,13.57
2022-10-09T17:25:25.118Z,13.61
2022-10-09T17:28:10.175Z,13.56
2022-10-09T17:30:55.427Z,13.39
2022-10-09T17:33:42.964Z,13.33
2022-10-09T17:36:30.996Z,13.24
2022-10-09T17:39:17.686Z,13.36
2022-10-09T17:42:03.311Z,13.11
2022-10-09T17:44:48.327Z,13.27
2022-10-09T17:47:33.417Z,13.23
2022-10-09T17:50:18.629Z,13.08
2022-10-09T17:53:04.390Z,13.08
2022-10-09T17:55:50.808Z,13.03
2022-10-09T17:58:35.699Z,12.84
2022-10-09T18:01:20.780Z,12.90
2022-10-09T18:04:05.910Z,12.77
2022-10-09T18:06:51.065Z,12.76
2022-10-09T18:09:36.361Z,12.77
2022-10-09T18:12:21.628Z,12.67
2022-10-09T18:15:07.373Z,12.64
2022-10-09T18:17:52.862Z,12.49
2022-10-09T18:20:39.801Z,12.55
2022-10-09T18:23:24.979Z,12.49
2022-10-09T18:26:12.359Z,12.48
2022-10-09T18:28:59.103Z,12.40
2022-10-09T18:31:44.040Z,12.31
2022-10-09T18:34:29.240Z,12.27
2022-10-09T18:37:15.193Z,12.25
2022-10-09T18:40:00.084Z,12.07
2022-10-09T18:42:45.385Z,12.16
2022-10-09T18:45:30.774Z,12.06
2022-10-09T18:48:16.858Z,11.98
2022-10-09T18:51:03.585Z,11.89
2022-10-09T18:53:54.095Z,11.62
2022-10-09T18:56:39.842Z,11.68
2022-10-09T18:59:24.997Z,11.51
2022-10-09T19:02:10.325Z,11.48
2022-10-09T19:04:56.189Z,11.44
2022-10-09T19:07:41.523Z,11.39
2022-10-09T19:10:26.972Z,11.34
2022-10-09T19:13:12.056Z,11.30
2022-10-09T19:16:04.565Z,11.19
2022-10-09T19:18:53.103Z,11.04
2022-10-09T19:21:39.397Z,11.06
2022-10-09T19:24:24.468Z,10.89
2022-10-09T19:27:09.621Z,10.71
2022-10-09T19:29:55.043Z,10.58
2022-10-09T19:32:40.389Z,10.49
2022-10-09T19:35:25.573Z,10.45
2022-10-09T19:38:10.637Z,10.35
2022-10-09T19:40:55.690Z,10.28
2022-10-09T19:43:41.909Z,10.28
2022-10-09T19:46:27.789Z,10.16
2022-10-09T19:49:13.050Z,10.35
2022-10-09T19:51:58.274Z,10.16
2022-10-09T19:54:43.200Z,10.23
2022-10-09T19:57:28.410Z,10.24
2022-10-09T20:00:13.839Z,10.18
2022-10-09T20:02:59.163Z,10.07
2022-10-09T20:05:44.124Z,9.96
2022-10-09T20:08:29.442Z,9.94
2022-10-09T20:11:14.926Z,9.80
2022-10-09T20:14:00.556Z,9.85
2022-10-09T20:16:45.718Z,9.82
2022-10-09T20:19:31.541Z,9.81
2022-10-09T20:22:16.787Z,9.75
2022-10-09T20:25:02.393Z,9.68
2022-10-09T20:27:47.503Z,9.64
2022-10-09T20:30:32.699Z,9.55
2022-10-09T20:33:17.863Z,9.52
2022-10-09T20:36:03.930Z,9.42
2022-10-09T20:38:49.730Z,9.32
2022-10-09T20:41:35.151Z,9.39
2022-10-09T20:44:20.338Z,9.30
2022-10-09T20:47:05.341Z,9.24
2022-10-09T20:49:50.271Z,9.17
2022-10-09T20:52:35.282Z,9.28
2022-10-09T20:55:20.370Z,9.28
2022-10-09T20:58:05.558Z,9.27
2022-10-09T21:00:50.869Z,9.13
2022-10-09T21:03:38.002Z,9.30
2022-10-09T21:06:23.781Z,9.09
2022-10-09T21:09:09.031Z,9.25
2022-10-09T21:11:54.318Z,9.20
2022-10-09T21:14:39.347Z,9.05
2022-10-09T21:17:24.673Z,9.13
2022-10-09T21:20:09.896Z,9.12
2022-10-09T21:22:55.323Z,9.20
2022-10-09T21:25:47.639Z,9.18
2022-10-09T21:28:33.073Z,9.15
2022-10-09T21:31:20.849Z,9.05
2022-10-09T21:34:06.649Z,9.08
2022-10-09T21:37:19.750Z,8.92
2022-10-09T21:39:58.516Z,8.83
2022-10-09T21:42:43.810Z,8.83
2022-10-09T21:45:28.702Z,8.80
2022-10-09T21:48:15.603Z,8.50
2022-10-09T21:51:00.785Z,8.60
2022-10-09T21:53:46.036Z,8.71
2022-10-09T21:56:31.348Z,8.68
2022-10-09T21:59:16.628Z,8.55
2022-10-09T22:02:02.830Z,8.63
2022-10-09T22:04:48.528Z,8.60
2022-10-09T22:07:33.504Z,8.53
2022-10-09T22:10:18.962Z,8.74
2022-10-09T22:13:03.905Z,8.81
2022-10-09T22:15:51.266Z,8.77
2022-10-09T22:18:37.582Z,8.86
2022-10-09T22:21:22.933Z,8.82
2022-10-09T22:24:08.067Z,8.77
2022-10-09T22:26:55.439Z,8.61
2022-10-09T22:29:40.624Z,8.53
2022-10-09T22:32:25.797Z,8.31
2022-10-09T22:35:10.861Z,8.34
2022-10-09T22:37:57.319Z,8.31
2022-10-09T22:40:46.432Z,8.19
2022-10-09T22:43:32.518Z,8.31
2022-10-09T22:46:20.717Z,8.31
2022-10-09T22:49:16.752Z,8.31
2022-10-09T22:52:01.790Z,8.30
2022-10-09T22:54:47.121Z,8.27
2022-10-09T22:57:31.999Z,8.09
2022-10-09T23:00:17.189Z,8.20
2022-10-09T23:03:02.298Z,8.13
2022-10-09T23:05:47.551Z,8.19
2022-10-09T23:08:33.381Z,8.06
2022-10-09T23:11:19.642Z,8.17
2022-10-09T23:14:05.529Z,8.15
2022-10-09T23:16:50.425Z,8.14
2022-10-09T23:19:35.834Z,8.11
2022-10-09T23:22:21.210Z,8.11
2022-10-09T23:25:06.715Z,8.11
2022-10-09T23:27:52.002Z,8.17
2022-10-09T23:30:37.253Z,8.20
2022-10-09T23:33:22.629Z,8.23
2022-10-09T23:36:09.473Z,8.15
2022-10-09T23:38:55.128Z,8.27
2022-10-09T23:41:40.382Z,8.21
2022-10-09T23:44:25.257Z,8.20
2022-10-09T23:47:10.289Z,8.15
2022-10-09T23:49:55.140Z,8.22
2022-10-09T23:52:40.033Z,8.16
2022-10-09T23:55:25.305Z,8.09
2022-10-09T23:58:11.003Z,8.08
